sensor_id;sensor_type;location;lat;lon;timestamp;temperature;humidity
44729;DHT22;30457;53.590;9.922;2023-04-24T00:04:20;17.30;52.50
44729;DHT22;30457;53.590;9.922;2023-04-24T00:08:45;17.20;52.70
44729;DHT22;30457;53.590;9.922;2023-04-24T00:13:11;17.20;52.70
44729;DHT22;30457;53.590;9.922;2023-04-24T00:17:37;17.20;52.70
44729;DHT22;30457;53.590;9.922;2023-04-24T00:22:03;17.10;52.90
44729;DHT22;30457;53.590;9.922;2023-04-24T00:26:28;17.10;52.90
44729;DHT22;30457;53.590;9.922;2023-04-24T00:30:54;17.00;53.20
44729;DHT22;30457;53.590;9.922;2023-04-24T00:35:19;17.10;53.30
44729;DHT22;30457;53.590;9.922;2023-04-24T00:39:45;17.10;53.20
44729;DHT22;30457;53.590;9.922;2023-04-24T00:44:11;17.00;53.20
44729;DHT22;30457;53.590;9.922;2023-04-24T00:48:39;17.00;53.30
44729;DHT22;30457;53.590;9.922;2023-04-24T00:53:04;17.00;53.50
44729;DHT22;30457;53.590;9.922;2023-04-24T00:57:30;17.00;53.40
44729;DHT22;30457;53.590;9.922;2023-04-24T01:01:58;16.90;53.40
44729;DHT22;30457;53.590;9.922;2023-04-24T01:06:23;16.90;53.40
44729;DHT22;30457;53.590;9.922;2023-04-24T01:10:53;16.80;53.30
44729;DHT22;30457;53.590;9.922;2023-04-24T01:15:20;16.80;53.30
44729;DHT22;30457;53.590;9.922;2023-04-24T01:19:45;16.70;53.30
44729;DHT22;30457;53.590;9.922;2023-04-24T01:24:11;16.70;53.50
44729;DHT22;30457;53.590;9.922;2023-04-24T01:28:37;16.60;53.40
44729;DHT22;30457;53.590;9.922;2023-04-24T01:33:04;16.60;53.50
44729;DHT22;30457;53.590;9.922;2023-04-24T01:37:30;16.50;53.70
44729;DHT22;30457;53.590;9.922;2023-04-24T01:41:57;16.50;53.80
44729;DHT22;30457;53.590;9.922;2023-04-24T01:46:23;16.50;54.00
44729;DHT22;30457;53.590;9.922;2023-04-24T01:50:49;16.40;53.80
44729;DHT22;30457;53.590;9.922;2023-04-24T01:55:14;16.40;53.80
44729;DHT22;30457;53.590;9.922;2023-04-24T01:59:40;16.40;53.80
44729;DHT22;30457;53.590;9.922;2023-04-24T02:04:06;16.40;53.90
44729;DHT22;30457;53.590;9.922;2023-04-24T02:08:34;16.40;53.70
44729;DHT22;30457;53.590;9.922;2023-04-24T02:13:00;16.40;53.50
44729;DHT22;30457;53.590;9.922;2023-04-24T02:17:26;16.40;53.60
44729;DHT22;30457;53.590;9.922;2023-04-24T02:21:51;16.30;53.30
44729;DHT22;30457;53.590;9.922;2023-04-24T02:26:17;16.30;53.10
44729;DHT22;30457;53.590;9.922;2023-04-24T02:30:43;16.20;53.00
44729;DHT22;30457;53.590;9.922;2023-04-24T02:35:09;16.20;53.00
44729;DHT22;30457;53.590;9.922;2023-04-24T02:39:34;16.10;53.00
44729;DHT22;30457;53.590;9.922;2023-04-24T02:44:01;16.10;53.10
44729;DHT22;30457;53.590;9.922;2023-04-24T02:48:27;16.00;53.00
44729;DHT22;30457;53.590;9.922;2023-04-24T02:52:53;16.00;53.40
44729;DHT22;30457;53.590;9.922;2023-04-24T02:57:18;16.00;53.30
44729;DHT22;30457;53.590;9.922;2023-04-24T03:01:44;15.90;53.40
44729;DHT22;30457;53.590;9.922;2023-04-24T03:06:09;15.90;53.50
44729;DHT22;30457;53.590;9.922;2023-04-24T03:10:35;15.80;53.50
44729;DHT22;30457;53.590;9.922;2023-04-24T03:15:01;15.80;53.60
44729;DHT22;30457;53.590;9.922;2023-04-24T03:19:26;15.80;53.70
44729;DHT22;30457;53.590;9.922;2023-04-24T03:23:59;15.70;53.60
44729;DHT22;30457;53.590;9.922;2023-04-24T03:28:25;15.70;53.70
44729;DHT22;30457;53.590;9.922;2023-04-24T03:32:59;15.60;53.70
44729;DHT22;30457;53.590;9.922;2023-04-24T03:37:28;15.60;53.70
44729;DHT22;30457;53.590;9.922;2023-04-24T03:42:11;15.50;53.80
44729;DHT22;30457;53.590;9.922;2023-04-24T03:46:48;15.50;53.70
44729;DHT22;30457;53.590;9.922;2023-04-24T03:51:14;15.50;53.60
44729;DHT22;30457;53.590;9.922;2023-04-24T03:55:43;15.40;53.60
44729;DHT22;30457;53.590;9.922;2023-04-24T04:00:10;15.30;53.50
44729;DHT22;30457;53.590;9.922;2023-04-24T04:04:40;15.30;53.30
44729;DHT22;30457;53.590;9.922;2023-04-24T04:09:05;15.20;53.20
44729;DHT22;30457;53.590;9.922;2023-04-24T04:13:32;15.20;53.20
44729;DHT22;30457;53.590;9.922;2023-04-24T04:17:58;15.10;53.10
44729;DHT22;30457;53.590;9.922;2023-04-24T04:22:23;15.10;53.00
44729;DHT22;30457;53.590;9.922;2023-04-24T04:26:50;15.10;53.00
44729;DHT22;30457;53.590;9.922;2023-04-24T04:31:24;15.00;52.70
44729;DHT22;30457;53.590;9.922;2023-04-24T04:35:51;15.00;52.80
44729;DHT22;30457;53.590;9.922;2023-04-24T04:40:22;14.90;52.70
44729;DHT22;30457;53.590;9.922;2023-04-24T04:44:54;14.90;52.70
44729;DHT22;30457;53.590;9.922;2023-04-24T04:49:29;14.90;52.70
44729;DHT22;30457;53.590;9.922;2023-04-24T04:53:55;14.90;52.80
44729;DHT22;30457;53.590;9.922;2023-04-24T04:58:21;15.00;52.90
44729;DHT22;30457;53.590;9.922;2023-04-24T05:02:52;15.00;53.00
44729;DHT22;30457;53.590;9.922;2023-04-24T05:07:18;15.00;52.90
44729;DHT22;30457;53.590;9.922;2023-04-24T05:11:48;15.00;52.70
44729;DHT22;30457;53.590;9.922;2023-04-24T05:16:14;15.10;52.70
44729;DHT22;30457;53.590;9.922;2023-04-24T05:20:40;15.10;52.60
44729;DHT22;30457;53.590;9.922;2023-04-24T05:25:06;15.10;52.60
44729;DHT22;30457;53.590;9.922;2023-04-24T05:29:36;15.20;52.60
44729;DHT22;30457;53.590;9.922;2023-04-24T05:34:03;15.30;52.70
44729;DHT22;30457;53.590;9.922;2023-04-24T05:38:31;15.30;52.40
44729;DHT22;30457;53.590;9.922;2023-04-24T05:42:56;15.40;52.30
44729;DHT22;30457;53.590;9.922;2023-04-24T05:47:23;15.50;52.30
44729;DHT22;30457;53.590;9.922;2023-04-24T05:51:50;15.60;52.40
44729;DHT22;30457;53.590;9.922;2023-04-24T05:56:17;15.60;52.50
44729;DHT22;30457;53.590;9.922;2023-04-24T06:00:43;15.80;52.10
44729;DHT22;30457;53.590;9.922;2023-04-24T06:05:11;15.90;52.10
44729;DHT22;30457;53.590;9.922;2023-04-24T06:09:37;16.00;52.10
44729;DHT22;30457;53.590;9.922;2023-04-24T06:14:03;16.10;52.00
44729;DHT22;30457;53.590;9.922;2023-04-24T06:18:37;16.20;51.90
44729;DHT22;30457;53.590;9.922;2023-04-24T06:23:03;16.30;51.80
44729;DHT22;30457;53.590;9.922;2023-04-24T06:27:29;16.40;51.50
44729;DHT22;30457;53.590;9.922;2023-04-24T06:31:54;16.50;51.20
44729;DHT22;30457;53.590;9.922;2023-04-24T06:36:20;16.60;51.10
44729;DHT22;30457;53.590;9.922;2023-04-24T06:40:45;16.80;51.10
44729;DHT22;30457;53.590;9.922;2023-04-24T06:45:11;16.90;51.20
44729;DHT22;30457;53.590;9.922;2023-04-24T06:49:37;17.00;50.70
44729;DHT22;30457;53.590;9.922;2023-04-24T06:54:02;17.10;50.60
44729;DHT22;30457;53.590;9.922;2023-04-24T06:58:28;17.30;50.40
44729;DHT22;30457;53.590;9.922;2023-04-24T07:02:55;17.40;50.10
44729;DHT22;30457;53.590;9.922;2023-04-24T07:07:22;17.50;49.70
44729;DHT22;30457;53.590;9.922;2023-04-24T07:11:49;17.60;49.70
44729;DHT22;30457;53.590;9.922;2023-04-24T07:16:15;17.80;49.70
44729;DHT22;30457;53.590;9.922;2023-04-24T07:20:41;17.90;49.80
44729;DHT22;30457;53.590;9.922;2023-04-24T07:25:07;18.10;49.00
44729;DHT22;30457;53.590;9.922;2023-04-24T07:29:32;18.20;49.30
44729;DHT22;30457;53.590;9.922;2023-04-24T07:33:58;18.30;48.50
44729;DHT22;30457;53.590;9.922;2023-04-24T07:38:23;18.40;48.60
44729;DHT22;30457;53.590;9.922;2023-04-24T07:42:51;18.50;48.20
44729;DHT22;30457;53.590;9.922;2023-04-24T07:47:16;18.60;47.70
44729;DHT22;30457;53.590;9.922;2023-04-24T07:51:42;18.70;48.10
44729;DHT22;30457;53.590;9.922;2023-04-24T07:56:08;18.90;47.20
44729;DHT22;30457;53.590;9.922;2023-04-24T08:00:33;18.90;46.90
44729;DHT22;30457;53.590;9.922;2023-04-24T08:04:59;18.90;46.70
44729;DHT22;30457;53.590;9.922;2023-04-24T08:09:24;18.90;46.40
44729;DHT22;30457;53.590;9.922;2023-04-24T08:13:50;18.80;46.40
44729;DHT22;30457;53.590;9.922;2023-04-24T08:18:16;18.80;46.00
44729;DHT22;30457;53.590;9.922;2023-04-24T08:22:42;18.70;45.90
44729;DHT22;30457;53.590;9.922;2023-04-24T08:27:09;18.60;46.10
44729;DHT22;30457;53.590;9.922;2023-04-24T08:31:35;18.60;45.90
44729;DHT22;30457;53.590;9.922;2023-04-24T08:36:05;18.50;46.00
44729;DHT22;30457;53.590;9.922;2023-04-24T08:40:34;18.40;45.60
44729;DHT22;30457;53.590;9.922;2023-04-24T08:44:59;18.30;46.10
44729;DHT22;30457;53.590;9.922;2023-04-24T08:49:25;18.30;46.30
44729;DHT22;30457;53.590;9.922;2023-04-24T08:53:53;18.30;46.20
44729;DHT22;30457;53.590;9.922;2023-04-24T08:58:19;18.20;46.20
44729;DHT22;30457;53.590;9.922;2023-04-24T09:02:46;18.20;46.60
44729;DHT22;30457;53.590;9.922;2023-04-24T09:07:14;18.20;46.80
44729;DHT22;30457;53.590;9.922;2023-04-24T09:11:42;18.30;47.10
44729;DHT22;30457;53.590;9.922;2023-04-24T09:16:07;18.40;46.90
44729;DHT22;30457;53.590;9.922;2023-04-24T09:20:33;18.50;46.90
44729;DHT22;30457;53.590;9.922;2023-04-24T09:25:06;18.60;46.90
44729;DHT22;30457;53.590;9.922;2023-04-24T09:29:32;18.70;46.20
44729;DHT22;30457;53.590;9.922;2023-04-24T09:34:03;18.70;45.90
44729;DHT22;30457;53.590;9.922;2023-04-24T09:42:57;18.60;45.70
44729;DHT22;30457;53.590;9.922;2023-04-24T09:47:26;18.60;46.10
44729;DHT22;30457;53.590;9.922;2023-04-24T09:51:52;18.60;45.60
44729;DHT22;30457;53.590;9.922;2023-04-24T09:56:27;18.60;45.60
44729;DHT22;30457;53.590;9.922;2023-04-24T10:00:55;18.60;45.80
44729;DHT22;30457;53.590;9.922;2023-04-24T10:05:29;18.50;45.70
44729;DHT22;30457;53.590;9.922;2023-04-24T10:09:55;18.50;45.60
44729;DHT22;30457;53.590;9.922;2023-04-24T10:14:25;18.40;45.80
44729;DHT22;30457;53.590;9.922;2023-04-24T10:18:50;18.40;45.90
44729;DHT22;30457;53.590;9.922;2023-04-24T10:23:16;18.30;46.30
44729;DHT22;30457;53.590;9.922;2023-04-24T10:27:45;18.40;46.10
44729;DHT22;30457;53.590;9.922;2023-04-24T10:32:12;18.40;46.10
44729;DHT22;30457;53.590;9.922;2023-04-24T10:36:41;18.40;46.10
44729;DHT22;30457;53.590;9.922;2023-04-24T10:41:12;18.40;46.00
44729;DHT22;30457;53.590;9.922;2023-04-24T10:46:02;18.40;45.80
44729;DHT22;30457;53.590;9.922;2023-04-24T10:50:34;18.40;45.80
44729;DHT22;30457;53.590;9.922;2023-04-24T10:55:07;18.40;46.00
44729;DHT22;30457;53.590;9.922;2023-04-24T10:59:35;18.40;46.30
44729;DHT22;30457;53.590;9.922;2023-04-24T11:04:03;18.50;46.50
44729;DHT22;30457;53.590;9.922;2023-04-24T11:08:31;18.60;46.20
44729;DHT22;30457;53.590;9.922;2023-04-24T11:12:56;18.70;45.90
44729;DHT22;30457;53.590;9.922;2023-04-24T11:17:36;18.70;46.00
44729;DHT22;30457;53.590;9.922;2023-04-24T11:22:04;18.80;45.40
44729;DHT22;30457;53.590;9.922;2023-04-24T11:26:30;18.90;45.10
44729;DHT22;30457;53.590;9.922;2023-04-24T11:31:38;19.00;45.40
44729;DHT22;30457;53.590;9.922;2023-04-24T11:36:03;19.00;44.00
44729;DHT22;30457;53.590;9.922;2023-04-24T11:40:29;19.10;44.70
44729;DHT22;30457;53.590;9.922;2023-04-24T11:44:55;19.10;44.20
44729;DHT22;30457;53.590;9.922;2023-04-24T11:49:21;19.10;43.90
44729;DHT22;30457;53.590;9.922;2023-04-24T11:53:46;19.00;43.70
44729;DHT22;30457;53.590;9.922;2023-04-24T11:58:12;19.00;43.90
44729;DHT22;30457;53.590;9.922;2023-04-24T12:02:37;18.90;44.00
44729;DHT22;30457;53.590;9.922;2023-04-24T12:07:03;18.90;43.90
44729;DHT22;30457;53.590;9.922;2023-04-24T12:11:30;18.90;44.30
44729;DHT22;30457;53.590;9.922;2023-04-24T12:15:59;18.90;43.90
44729;DHT22;30457;53.590;9.922;2023-04-24T12:20:28;18.90;43.50
44729;DHT22;30457;53.590;9.922;2023-04-24T12:24:57;18.90;43.80
44729;DHT22;30457;53.590;9.922;2023-04-24T12:29:24;18.80;43.50
44729;DHT22;30457;53.590;9.922;2023-04-24T12:33:50;18.80;43.50
44729;DHT22;30457;53.590;9.922;2023-04-24T12:38:16;18.70;43.40
44729;DHT22;30457;53.590;9.922;2023-04-24T12:42:46;18.60;43.40
44729;DHT22;30457;53.590;9.922;2023-04-24T12:47:12;18.50;43.60
44729;DHT22;30457;53.590;9.922;2023-04-24T12:51:38;18.40;44.20
44729;DHT22;30457;53.590;9.922;2023-04-24T12:56:04;18.30;44.10
44729;DHT22;30457;53.590;9.922;2023-04-24T13:00:30;18.30;44.70
44729;DHT22;30457;53.590;9.922;2023-04-24T13:04:55;18.20;44.60
44729;DHT22;30457;53.590;9.922;2023-04-24T13:09:21;18.10;44.50
44729;DHT22;30457;53.590;9.922;2023-04-24T13:13:47;18.00;44.60
44729;DHT22;30457;53.590;9.922;2023-04-24T13:18:13;17.90;44.30
44729;DHT22;30457;53.590;9.922;2023-04-24T13:22:38;17.80;44.60
44729;DHT22;30457;53.590;9.922;2023-04-24T13:27:04;17.80;44.80
44729;DHT22;30457;53.590;9.922;2023-04-24T13:31:29;17.70;45.10
44729;DHT22;30457;53.590;9.922;2023-04-24T13:35:55;17.70;45.00
44729;DHT22;30457;53.590;9.922;2023-04-24T13:40:21;17.60;45.00
44729;DHT22;30457;53.590;9.922;2023-04-24T13:44:47;17.60;45.30
44729;DHT22;30457;53.590;9.922;2023-04-24T13:49:13;17.50;45.50
44729;DHT22;30457;53.590;9.922;2023-04-24T13:53:39;17.50;45.60
44729;DHT22;30457;53.590;9.922;2023-04-24T13:58:04;17.50;45.60
44729;DHT22;30457;53.590;9.922;2023-04-24T14:02:30;17.50;45.70
44729;DHT22;30457;53.590;9.922;2023-04-24T14:06:55;17.40;45.90
44729;DHT22;30457;53.590;9.922;2023-04-24T14:11:21;17.40;45.90
44729;DHT22;30457;53.590;9.922;2023-04-24T14:15:47;17.40;45.90
44729;DHT22;30457;53.590;9.922;2023-04-24T14:20:13;17.50;46.10
44729;DHT22;30457;53.590;9.922;2023-04-24T14:24:39;17.40;45.90
44729;DHT22;30457;53.590;9.922;2023-04-24T14:29:04;17.50;46.10
44729;DHT22;30457;53.590;9.922;2023-04-24T14:33:30;17.50;46.40
44729;DHT22;30457;53.590;9.922;2023-04-24T14:37:55;17.30;47.30
44729;DHT22;30457;53.590;9.922;2023-04-24T14:42:21;17.20;47.90
44729;DHT22;30457;53.590;9.922;2023-04-24T14:46:47;17.00;48.60
44729;DHT22;30457;53.590;9.922;2023-04-24T14:51:13;16.90;49.10
44729;DHT22;30457;53.590;9.922;2023-04-24T14:55:38;16.70;49.80
44729;DHT22;30457;53.590;9.922;2023-04-24T15:00:05;16.60;50.00
44729;DHT22;30457;53.590;9.922;2023-04-24T15:04:33;16.50;50.40
44729;DHT22;30457;53.590;9.922;2023-04-24T15:08:59;16.40;50.40
44729;DHT22;30457;53.590;9.922;2023-04-24T15:13:25;16.20;50.80
44729;DHT22;30457;53.590;9.922;2023-04-24T15:17:51;16.10;50.80
44729;DHT22;30457;53.590;9.922;2023-04-24T15:22:16;16.00;50.80
44729;DHT22;30457;53.590;9.922;2023-04-24T15:26:42;15.90;51.20
44729;DHT22;30457;53.590;9.922;2023-04-24T15:31:07;15.70;51.30
44729;DHT22;30457;53.590;9.922;2023-04-24T15:35:33;15.60;51.50
44729;DHT22;30457;53.590;9.922;2023-04-24T15:39:59;15.40;52.00
44729;DHT22;30457;53.590;9.922;2023-04-24T15:44:25;15.30;52.10
44729;DHT22;30457;53.590;9.922;2023-04-24T15:48:51;15.10;52.10
44729;DHT22;30457;53.590;9.922;2023-04-24T15:53:16;15.00;52.50
44729;DHT22;30457;53.590;9.922;2023-04-24T15:57:47;14.90;52.60
44729;DHT22;30457;53.590;9.922;2023-04-24T16:02:14;14.80;52.50
44729;DHT22;30457;53.590;9.922;2023-04-24T16:06:46;14.70;52.80
44729;DHT22;30457;53.590;9.922;2023-04-24T16:11:11;14.60;53.00
44729;DHT22;30457;53.590;9.922;2023-04-24T16:15:38;14.40;52.70
44729;DHT22;30457;53.590;9.922;2023-04-24T16:20:04;14.30;52.60
44729;DHT22;30457;53.590;9.922;2023-04-24T16:24:30;14.20;52.50
44729;DHT22;30457;53.590;9.922;2023-04-24T16:28:55;14.00;52.30
44729;DHT22;30457;53.590;9.922;2023-04-24T16:33:21;13.90;52.50
44729;DHT22;30457;53.590;9.922;2023-04-24T16:37:47;13.80;52.60
44729;DHT22;30457;53.590;9.922;2023-04-24T16:42:13;13.70;52.50
44729;DHT22;30457;53.590;9.922;2023-04-24T16:46:39;13.60;52.70
44729;DHT22;30457;53.590;9.922;2023-04-24T16:51:05;13.50;52.90
44729;DHT22;30457;53.590;9.922;2023-04-24T16:55:30;13.40;53.10
44729;DHT22;30457;53.590;9.922;2023-04-24T16:59:56;13.40;53.40
44729;DHT22;30457;53.590;9.922;2023-04-24T17:04:21;13.30;53.20
44729;DHT22;30457;53.590;9.922;2023-04-24T17:08:47;13.30;53.70
44729;DHT22;30457;53.590;9.922;2023-04-24T17:13:12;13.20;53.70
44729;DHT22;30457;53.590;9.922;2023-04-24T17:17:38;13.20;54.00
44729;DHT22;30457;53.590;9.922;2023-04-24T17:22:06;13.20;54.00
44729;DHT22;30457;53.590;9.922;2023-04-24T17:26:32;13.20;54.10
44729;DHT22;30457;53.590;9.922;2023-04-24T17:30:58;13.30;54.40
44729;DHT22;30457;53.590;9.922;2023-04-24T17:35:23;13.30;54.20
44729;DHT22;30457;53.590;9.922;2023-04-24T17:39:49;13.20;54.30
44729;DHT22;30457;53.590;9.922;2023-04-24T17:44:15;13.20;54.20
44729;DHT22;30457;53.590;9.922;2023-04-24T17:48:41;13.20;54.50
44729;DHT22;30457;53.590;9.922;2023-04-24T17:53:07;13.20;54.90
44729;DHT22;30457;53.590;9.922;2023-04-24T17:57:32;13.30;54.80
44729;DHT22;30457;53.590;9.922;2023-04-24T18:01:58;13.20;54.50
44729;DHT22;30457;53.590;9.922;2023-04-24T18:06:23;13.30;54.90
44729;DHT22;30457;53.590;9.922;2023-04-24T18:10:49;13.20;54.90
44729;DHT22;30457;53.590;9.922;2023-04-24T18:15:15;13.20;55.00
44729;DHT22;30457;53.590;9.922;2023-04-24T18:19:41;13.20;55.10
44729;DHT22;30457;53.590;9.922;2023-04-24T18:24:07;13.20;55.00
44729;DHT22;30457;53.590;9.922;2023-04-24T18:28:32;13.10;55.00
44729;DHT22;30457;53.590;9.922;2023-04-24T18:32:59;13.10;55.00
44729;DHT22;30457;53.590;9.922;2023-04-24T18:37:24;13.10;55.20
44729;DHT22;30457;53.590;9.922;2023-04-24T18:41:50;13.10;55.20
44729;DHT22;30457;53.590;9.922;2023-04-24T18:46:16;13.10;55.30
44729;DHT22;30457;53.590;9.922;2023-04-24T18:50:42;13.00;55.50
44729;DHT22;30457;53.590;9.922;2023-04-24T18:55:08;13.00;55.30
44729;DHT22;30457;53.590;9.922;2023-04-24T18:59:34;13.00;55.00
44729;DHT22;30457;53.590;9.922;2023-04-24T19:04:00;13.00;55.10
44729;DHT22;30457;53.590;9.922;2023-04-24T19:08:25;13.00;55.10
44729;DHT22;30457;53.590;9.922;2023-04-24T19:12:51;13.00;55.20
44729;DHT22;30457;53.590;9.922;2023-04-24T19:17:21;12.90;55.20
44729;DHT22;30457;53.590;9.922;2023-04-24T19:21:49;12.90;55.50
44729;DHT22;30457;53.590;9.922;2023-04-24T19:26:15;12.90;55.60
44729;DHT22;30457;53.590;9.922;2023-04-24T19:30:41;12.90;55.60
44729;DHT22;30457;53.590;9.922;2023-04-24T19:35:06;12.90;55.60
44729;DHT22;30457;53.590;9.922;2023-04-24T19:39:32;12.90;55.60
44729;DHT22;30457;53.590;9.922;2023-04-24T19:43:58;12.90;56.10
44729;DHT22;30457;53.590;9.922;2023-04-24T19:48:23;12.80;55.60
44729;DHT22;30457;53.590;9.922;2023-04-24T19:52:49;12.80;55.90
44729;DHT22;30457;53.590;9.922;2023-04-24T19:57:14;12.80;56.10
44729;DHT22;30457;53.590;9.922;2023-04-24T20:01:41;12.80;56.10
44729;DHT22;30457;53.590;9.922;2023-04-24T20:06:07;12.80;56.60
44729;DHT22;30457;53.590;9.922;2023-04-24T20:10:35;12.80;56.50
44729;DHT22;30457;53.590;9.922;2023-04-24T20:15:02;12.80;56.40
44729;DHT22;30457;53.590;9.922;2023-04-24T20:19:28;12.80;56.40
44729;DHT22;30457;53.590;9.922;2023-04-24T20:23:54;12.80;56.30
44729;DHT22;30457;53.590;9.922;2023-04-24T20:28:19;12.80;56.50
44729;DHT22;30457;53.590;9.922;2023-04-24T20:32:46;12.80;56.80
44729;DHT22;30457;53.590;9.922;2023-04-24T20:37:12;12.80;56.40
44729;DHT22;30457;53.590;9.922;2023-04-24T20:41:37;12.80;56.80
44729;DHT22;30457;53.590;9.922;2023-04-24T20:46:03;12.80;56.80
44729;DHT22;30457;53.590;9.922;2023-04-24T20:50:29;12.80;56.80
44729;DHT22;30457;53.590;9.922;2023-04-24T20:54:57;12.80;56.70
44729;DHT22;30457;53.590;9.922;2023-04-24T20:59:23;12.80;57.10
44729;DHT22;30457;53.590;9.922;2023-04-24T21:03:48;12.70;56.90
44729;DHT22;30457;53.590;9.922;2023-04-24T21:08:14;12.70;56.80
44729;DHT22;30457;53.590;9.922;2023-04-24T21:12:39;12.80;57.40
44729;DHT22;30457;53.590;9.922;2023-04-24T21:17:05;12.70;57.00
44729;DHT22;30457;53.590;9.922;2023-04-24T21:21:30;12.70;56.80
44729;DHT22;30457;53.590;9.922;2023-04-24T21:25:58;12.70;56.70
44729;DHT22;30457;53.590;9.922;2023-04-24T21:30:23;12.70;56.70
44729;DHT22;30457;53.590;9.922;2023-04-24T21:34:49;12.70;56.60
44729;DHT22;30457;53.590;9.922;2023-04-24T21:39:14;12.70;56.70
44729;DHT22;30457;53.590;9.922;2023-04-24T21:43:40;12.60;56.50
44729;DHT22;30457;53.590;9.922;2023-04-24T21:48:06;12.60;56.60
44729;DHT22;30457;53.590;9.922;2023-04-24T21:52:31;12.60;56.50
44729;DHT22;30457;53.590;9.922;2023-04-24T21:56:57;12.60;56.60
44729;DHT22;30457;53.590;9.922;2023-04-24T22:01:22;12.60;56.60
44729;DHT22;30457;53.590;9.922;2023-04-24T22:05:48;12.60;56.80
44729;DHT22;30457;53.590;9.922;2023-04-24T22:10:14;12.60;56.90
44729;DHT22;30457;53.590;9.922;2023-04-24T22:14:40;12.50;56.70
44729;DHT22;30457;53.590;9.922;2023-04-24T22:19:06;12.50;57.00
44729;DHT22;30457;53.590;9.922;2023-04-24T22:23:32;12.50;57.00
44729;DHT22;30457;53.590;9.922;2023-04-24T22:27:57;12.50;57.10
44729;DHT22;30457;53.590;9.922;2023-04-24T22:32:23;12.50;57.00
44729;DHT22;30457;53.590;9.922;2023-04-24T22:36:51;12.50;57.30
44729;DHT22;30457;53.590;9.922;2023-04-24T22:41:17;12.60;57.40
44729;DHT22;30457;53.590;9.922;2023-04-24T22:45:43;12.50;57.20
44729;DHT22;30457;53.590;9.922;2023-04-24T22:50:08;12.50;57.30
44729;DHT22;30457;53.590;9.922;2023-04-24T22:54:34;12.50;57.30
44729;DHT22;30457;53.590;9.922;2023-04-24T22:59:00;12.50;57.30
44729;DHT22;30457;53.590;9.922;2023-04-24T23:07:52;12.50;57.30
44729;DHT22;30457;53.590;9.922;2023-04-24T23:12:18;12.50;57.40
44729;DHT22;30457;53.590;9.922;2023-04-24T23:16:43;12.50;57.40
44729;DHT22;30457;53.590;9.922;2023-04-24T23:21:10;12.50;57.50
44729;DHT22;30457;53.590;9.922;2023-04-24T23:25:36;12.50;57.50
44729;DHT22;30457;53.590;9.922;2023-04-24T23:30:05;12.50;57.50
44729;DHT22;30457;53.590;9.922;2023-04-24T23:34:32;12.50;57.50
44729;DHT22;30457;53.590;9.922;2023-04-24T23:38:58;12.50;57.90
44729;DHT22;30457;53.590;9.922;2023-04-24T23:43:23;12.50;57.90
44729;DHT22;30457;53.590;9.922;2023-04-24T23:47:49;12.50;58.00
44729;DHT22;30457;53.590;9.922;2023-04-24T23:52:15;12.40;58.00
44729;DHT22;30457;53.590;9.922;2023-04-24T23:56:40;12.40;58.10
